CheckWX is a tool to help pilots better visualize weather data.  It is not intended as a substitute for an official pre-flight weather briefing.

14:56:30 UTC

KBED METAR
Laurence G Hanscom Field Airport
Bedford, Massachusetts, USA
Current

1 hour ago

KBED 201356Z 23009KT 10SM CLR 23/18 A2977 RMK AO2 SLP092 T02280178
Observed
May-20 @ 13:56 UTC
Wind
  • 230° at 9 KTS
Visibility
10 SM
Flight Rules
VFR
Cloud Levels
  • Clear skies
Temperature
23°C / 73°F
Dewpoint
18°C / 64°F
Humidity
74%
Altimeter
29.77" Hg
Pressure
1008.12 hPa
Previous

2 hours ago

KBED 201256Z 19007KT 10SM SCT110 21/17 A2978 RMK AO2 SLP097 T02110172
Observed
May-20 @ 12:56 UTC
Wind
  • 190° at 7 KTS
Visibility
10 SM
Flight Rules
VFR
Cloud Levels
  • Scattered at 11,000' AGL
Temperature
21°C / 70°F
Dewpoint
17°C / 63°F
Humidity
78%
Altimeter
29.78" Hg
Pressure
1008.42 hPa
Previous

3 hours ago

KBED 201156Z 22007KT 10SM CLR 21/17 A2980 RMK AO2 SLP103 60006 70034 T02060172 10206 20194 53006
Observed
May-20 @ 11:56 UTC
Wind
  • 220° at 7 KTS
Visibility
10 SM
Flight Rules
VFR
Cloud Levels
  • Clear skies
Temperature
21°C / 70°F
Dewpoint
17°C / 63°F
Humidity
78%
Altimeter
29.8" Hg
Pressure
1009.12 hPa
24 Hour Rain
0.34"